Terminal Aerodrome Forecast
Issued by NWS Austin/San Antonio, TX

Home | Current Version | Previous Version | Text Only | Print | Product List | Glossary On
Versions: 1 2 3 4 5 6 7 8 9 10 11 12 13 14 15 16 17 18
000
FTUS44 KEWX 280540
TAFDRT
TAF
KDRT 280540Z 2806/2906 13010KT P6SM SCT035
     FM280800 12009KT P6SM OVC022
     FM281100 11009KT P6SM OVC007
     FM281700 13009KT P6SM OVC015
     FM282000 13013KT P6SM BKN250
     FM290500 33010G20KT P6SM -TSRA BKN020CB=

USA.gov is the U.S. government's official web portal to all federal, state and local government web resources and services.